createdAt,value
2023-02-05T00:00:27.901Z,44.10
2023-02-05T00:02:54.729Z,41.65
2023-02-05T00:05:21.571Z,39.75
2023-02-05T00:07:48.371Z,38.83
2023-02-05T00:10:15.866Z,39.90
2023-02-05T00:12:42.695Z,41.42
2023-02-05T00:15:09.873Z,45.50
2023-02-05T00:17:37.141Z,43.85
2023-02-05T00:20:05.880Z,39.55
2023-02-05T00:22:33.152Z,40.78
2023-02-05T00:24:59.977Z,42.97
2023-02-05T00:27:26.893Z,40.70
2023-02-05T00:29:53.743Z,38.85
2023-02-05T00:32:20.459Z,40.75
2023-02-05T00:34:47.270Z,30.23
2023-02-05T00:37:13.979Z,46.33
2023-02-05T00:39:40.868Z,37.63
2023-02-05T00:42:07.731Z,39.13
2023-02-05T00:44:34.610Z,42.05
2023-02-05T00:47:01.372Z,31.17
2023-02-05T00:49:28.207Z,32.60
2023-02-05T00:51:55.090Z,34.80
2023-02-05T00:54:21.975Z,28.92
2023-02-05T00:56:48.745Z,41.40
2023-02-05T00:59:15.499Z,35.80
2023-02-05T01:01:42.366Z,41.08
2023-02-05T01:04:09.236Z,37.35
2023-02-05T01:06:35.990Z,32.78
2023-02-05T01:09:02.917Z,37.70
2023-02-05T01:11:29.857Z,40.88
2023-02-05T01:13:56.764Z,43.47
2023-02-05T01:16:23.974Z,40.03
2023-02-05T01:18:50.773Z,45.70
2023-02-05T01:21:17.708Z,39.13
2023-02-05T01:23:44.542Z,45.05
2023-02-05T01:26:11.308Z,38.20
2023-02-05T01:28:38.150Z,42.85
2023-02-05T01:31:05.228Z,45.00
2023-02-05T01:33:32.100Z,41.83
2023-02-05T01:35:58.837Z,47.95
2023-02-05T01:38:25.635Z,39.70
2023-02-05T01:40:52.433Z,43.88
2023-02-05T01:43:19.514Z,48.25
2023-02-05T01:46:15.086Z,39.17
2023-02-05T01:48:46.494Z,36.80
2023-02-05T01:51:15.643Z,38.35
2023-02-05T01:53:43.883Z,45.22
2023-02-05T01:56:43.050Z,40.97
2023-02-05T01:59:19.111Z,39.38
2023-02-05T02:01:46.709Z,54.88
2023-02-05T02:04:20.976Z,42.70
2023-02-05T02:06:47.833Z,38.45
2023-02-05T02:09:14.572Z,40.30
2023-02-05T02:11:43.844Z,40.17
2023-02-05T02:14:12.001Z,47.53
2023-02-05T02:16:40.436Z,47.65
2023-02-05T02:19:18.686Z,46.63
2023-02-05T02:22:04.204Z,53.03
2023-02-05T02:24:47.812Z,40.03
2023-02-05T02:27:17.537Z,40.30
2023-02-05T02:29:57.439Z,36.80
2023-02-05T02:32:41.421Z,49.33
2023-02-05T02:35:33.194Z,39.13
2023-02-05T02:38:12.289Z,34.40
2023-02-05T02:40:53.918Z,32.47
2023-02-05T02:43:34.493Z,38.05
2023-02-05T02:46:16.600Z,44.50
2023-02-05T02:48:44.104Z,44.33
2023-02-05T02:51:12.264Z,44.00
2023-02-05T02:53:44.679Z,42.13
2023-02-05T02:56:13.716Z,54.45
2023-02-05T02:58:49.340Z,50.38
2023-02-05T03:01:18.781Z,48.78
2023-02-05T03:03:54.082Z,56.25
2023-02-05T03:06:22.250Z,50.38
2023-02-05T03:09:09.936Z,51.38
2023-02-05T03:11:36.720Z,58.60
2023-02-05T03:14:03.689Z,47.08
2023-02-05T03:16:31.212Z,48.13
2023-02-05T03:18:58.842Z,53.70
2023-02-05T03:21:34.015Z,53.45
2023-02-05T03:24:00.804Z,53.17
2023-02-05T03:26:30.746Z,53.17
2023-02-05T03:29:00.545Z,62.00
2023-02-05T03:31:32.911Z,52.40
2023-02-05T03:34:25.301Z,50.63
2023-02-05T03:37:08.840Z,54.28
2023-02-05T03:39:38.597Z,50.53
2023-02-05T03:42:26.186Z,56.83
2023-02-05T03:45:05.043Z,58.13
2023-02-05T03:47:53.249Z,57.97
2023-02-05T03:50:44.339Z,62.22
2023-02-05T03:53:33.586Z,51.58
2023-02-05T03:56:06.224Z,54.60
2023-02-05T03:58:43.381Z,66.35
2023-02-05T04:01:11.821Z,53.22
2023-02-05T04:03:39.561Z,52.15
2023-02-05T04:06:06.965Z,62.35
2023-02-05T04:08:33.770Z,58.35
2023-02-05T04:11:00.619Z,50.83
2023-02-05T04:13:27.376Z,43.75
2023-02-05T04:15:54.135Z,51.28
2023-02-05T04:18:21.096Z,53.92
2023-02-05T04:20:47.852Z,65.93
2023-02-05T04:23:14.619Z,55.83
2023-02-05T04:25:42.307Z,57.65
2023-02-05T04:28:10.383Z,53.25
2023-02-05T04:30:37.550Z,45.33
2023-02-05T04:33:04.324Z,58.70
2023-02-05T04:35:31.055Z,43.63
2023-02-05T04:37:57.841Z,44.80
2023-02-05T04:40:24.701Z,45.60
2023-02-05T04:42:51.462Z,49.58
2023-02-05T04:45:18.296Z,56.88
2023-02-05T04:47:45.056Z,50.42
2023-02-05T04:50:11.873Z,50.58
2023-02-05T04:52:38.623Z,48.53
2023-02-05T04:55:05.878Z,54.33
2023-02-05T04:57:32.662Z,43.80
2023-02-05T04:59:59.531Z,51.63
2023-02-05T05:02:26.519Z,53.30
2023-02-05T05:04:53.300Z,55.47
2023-02-05T05:07:20.056Z,55.42
2023-02-05T05:09:46.821Z,47.05
2023-02-05T05:12:13.671Z,57.28
2023-02-05T05:14:40.430Z,61.50
2023-02-05T05:17:07.238Z,48.28
2023-02-05T05:19:34.100Z,50.55
2023-02-05T05:22:00.898Z,60.30
2023-02-05T05:24:27.740Z,51.50
2023-02-05T05:26:54.550Z,54.67
2023-02-05T05:29:21.312Z,55.70
2023-02-05T05:31:48.134Z,52.20
2023-02-05T05:34:15.113Z,52.75
2023-02-05T05:36:43.734Z,62.83
2023-02-05T05:39:29.478Z,63.88
2023-02-05T05:42:14.782Z,74.55
2023-02-05T05:44:41.629Z,66.72
2023-02-05T05:47:08.368Z,60.15
2023-02-05T05:49:35.163Z,62.03
2023-02-05T05:52:01.934Z,56.47
2023-02-05T05:54:28.674Z,54.50
2023-02-05T05:56:55.464Z,63.35
2023-02-05T05:59:22.239Z,58.92
2023-02-05T06:01:49.076Z,61.08
2023-02-05T06:04:15.882Z,60.45
2023-02-05T06:06:42.654Z,55.42
2023-02-05T06:09:09.503Z,53.42
2023-02-05T06:11:36.395Z,57.45
2023-02-05T06:14:03.390Z,62.60
2023-02-05T06:16:30.338Z,64.80
2023-02-05T06:18:57.247Z,63.30
2023-02-05T06:21:24.003Z,57.15
2023-02-05T06:23:50.916Z,62.55
2023-02-05T06:26:17.792Z,54.45
2023-02-05T06:28:44.528Z,62.63
2023-02-05T06:31:11.960Z,67.63
2023-02-05T06:33:38.801Z,69.07
2023-02-05T06:36:06.249Z,67.55
2023-02-05T06:38:33.011Z,62.38
2023-02-05T06:40:59.818Z,60.85
2023-02-05T06:43:26.732Z,67.70
2023-02-05T06:45:53.663Z,63.80
2023-02-05T06:48:20.392Z,68.70
2023-02-05T06:50:47.208Z,69.18
2023-02-05T06:53:14.064Z,66.45
2023-02-05T06:55:40.906Z,72.05
2023-02-05T06:58:07.944Z,65.93
2023-02-05T07:00:35.557Z,68.15
2023-02-05T07:03:02.351Z,81.93
2023-02-05T07:05:29.202Z,78.53
2023-02-05T07:07:56.076Z,79.90
2023-02-05T07:10:22.855Z,80.75
2023-02-05T07:12:49.660Z,77.28
2023-02-05T07:15:16.404Z,91.82
2023-02-05T07:17:43.146Z,85.28
2023-02-05T07:20:10.434Z,82.97
2023-02-05T07:22:37.191Z,78.70
2023-02-05T07:25:04.859Z,78.20
2023-02-05T07:27:31.785Z,79.00
2023-02-05T07:29:58.545Z,86.50
2023-02-05T07:32:25.315Z,75.35
2023-02-05T07:34:52.112Z,77.05
2023-02-05T07:37:21.295Z,73.68
2023-02-05T07:39:48.284Z,77.75
2023-02-05T07:42:15.327Z,75.85
2023-02-05T07:44:42.132Z,74.10
2023-02-05T07:47:08.924Z,69.88
2023-02-05T07:49:36.080Z,76.75
2023-02-05T07:52:03.083Z,80.30
2023-02-05T07:54:30.034Z,73.78
2023-02-05T07:56:56.979Z,74.50
2023-02-05T07:59:23.908Z,76.63
2023-02-05T08:01:50.680Z,73.60
2023-02-05T08:04:17.759Z,73.53
2023-02-05T08:06:44.550Z,83.22
2023-02-05T08:09:11.631Z,82.05
2023-02-05T08:11:38.749Z,64.03
2023-02-05T08:14:05.620Z,70.90
2023-02-05T08:16:32.395Z,68.82
2023-02-05T08:18:59.288Z,74.78
2023-02-05T08:21:26.040Z,70.97
2023-02-05T08:23:53.699Z,81.10
2023-02-05T08:26:20.462Z,78.60
2023-02-05T08:28:47.595Z,82.53
2023-02-05T08:31:17.655Z,80.53
2023-02-05T08:33:44.833Z,81.38
2023-02-05T08:36:11.936Z,82.10
2023-02-05T08:38:38.908Z,78.63
2023-02-05T08:41:13.401Z,80.22
2023-02-05T08:43:41.823Z,80.55
2023-02-05T08:46:09.923Z,77.50
2023-02-05T08:48:36.943Z,81.13
2023-02-05T08:51:04.115Z,71.65
2023-02-05T08:53:32.661Z,76.57
2023-02-05T08:56:02.394Z,66.65
2023-02-05T08:58:29.941Z,78.43
2023-02-05T09:01:23.171Z,77.13
2023-02-05T09:03:50.006Z,64.57
2023-02-05T09:06:17.101Z,67.65
2023-02-05T09:08:43.951Z,59.45
2023-02-05T09:11:13.389Z,57.22
2023-02-05T09:13:40.813Z,52.72
2023-02-05T09:16:11.310Z,59.70
2023-02-05T09:18:38.545Z,47.35
2023-02-05T09:21:10.580Z,49.58
2023-02-05T09:23:38.110Z,46.83
2023-02-05T09:26:07.035Z,50.67
2023-02-05T09:28:33.871Z,35.05
2023-02-05T09:31:08.711Z,44.83
2023-02-05T09:33:35.900Z,36.65
2023-02-05T09:36:14.098Z,43.40
2023-02-05T09:38:41.644Z,33.35
2023-02-05T09:41:10.556Z,20.65
2023-02-05T09:44:08.623Z,19.85
2023-02-05T09:46:50.093Z,16.23
2023-02-05T09:49:45.063Z,10.02
2023-02-05T09:52:19.977Z,12.45
2023-02-05T09:54:52.857Z,9.13
2023-02-05T09:59:54.611Z,8.15
2023-02-05T10:02:27.066Z,8.98
2023-02-05T10:04:57.645Z,14.23
2023-02-05T10:07:37.489Z,13.20
2023-02-05T10:10:16.121Z,9.13
2023-02-05T10:13:20.788Z,7.82
2023-02-05T10:16:23.373Z,9.20
2023-02-05T10:19:16.563Z,7.90
2023-02-05T10:22:11.851Z,7.40
2023-02-05T10:24:49.675Z,10.73
2023-02-05T10:27:45.034Z,7.63
2023-02-05T10:30:30.707Z,6.20
2023-02-05T10:32:58.814Z,9.40
2023-02-05T10:35:58.773Z,9.48
2023-02-05T10:38:33.014Z,9.25
2023-02-05T10:41:06.535Z,4.90
2023-02-05T10:43:43.004Z,7.30
2023-02-05T10:46:14.335Z,11.20
2023-02-05T10:48:49.380Z,9.32
2023-02-05T10:51:33.078Z,7.00
2023-02-05T10:54:01.063Z,7.03
2023-02-05T10:56:28.003Z,7.97
2023-02-05T10:58:58.253Z,12.25
2023-02-05T11:01:38.120Z,10.13
2023-02-05T11:04:14.072Z,4.97
2023-02-05T11:06:55.043Z,9.75
2023-02-05T11:09:24.950Z,10.88
2023-02-05T11:12:27.684Z,10.35
2023-02-05T11:15:02.771Z,8.67
2023-02-05T11:17:36.518Z,13.35
2023-02-05T11:20:22.548Z,12.35
2023-02-05T11:22:49.775Z,12.60
2023-02-05T11:25:27.234Z,12.43
2023-02-05T11:27:58.755Z,8.63
2023-02-05T11:30:52.297Z,10.65
2023-02-05T11:33:22.389Z,13.63
2023-02-05T11:36:08.039Z,13.23
2023-02-05T11:38:51.201Z,12.93
2023-02-05T11:43:54.639Z,12.73
2023-02-05T11:46:24.360Z,6.47
2023-02-05T11:49:07.485Z,17.05
2023-02-05T11:54:19.793Z,11.80
2023-02-05T11:57:10.413Z,14.03
2023-02-05T11:59:37.348Z,9.18
2023-02-05T12:02:25.718Z,13.63
2023-02-05T12:05:15.871Z,13.15
2023-02-05T12:07:58.048Z,14.73
2023-02-05T12:10:47.275Z,13.32
2023-02-05T12:13:36.585Z,21.55
2023-02-05T12:16:34.546Z,14.85
2023-02-05T12:19:25.086Z,14.77
2023-02-05T12:22:06.128Z,15.35
2023-02-05T12:24:51.643Z,13.35
2023-02-05T12:27:36.543Z,13.32
2023-02-05T12:30:26.022Z,25.40
2023-02-05T12:33:04.674Z,19.17
2023-02-05T12:36:15.126Z,26.40
2023-02-05T12:39:02.922Z,20.10
2023-02-05T12:41:38.835Z,17.35
2023-02-05T12:44:08.575Z,13.10
2023-02-05T12:47:16.962Z,19.23
2023-02-05T12:50:08.181Z,19.17
2023-02-05T12:53:00.256Z,21.02
2023-02-05T12:56:05.392Z,23.60
2023-02-05T12:58:44.824Z,18.05
2023-02-05T13:01:17.345Z,23.48
2023-02-05T13:03:51.281Z,23.77
2023-02-05T13:06:33.502Z,16.80
2023-02-05T13:09:18.812Z,36.33
2023-02-05T13:12:00.717Z,19.25
2023-02-05T13:14:39.455Z,13.52
2023-02-05T13:17:23.832Z,25.65
2023-02-05T13:20:00.288Z,22.92
2023-02-05T13:22:59.833Z,15.20
2023-02-05T13:25:56.594Z,18.85
2023-02-05T13:28:43.564Z,20.63
2023-02-05T13:31:30.393Z,18.95
2023-02-05T13:34:03.382Z,17.40
2023-02-05T13:36:30.185Z,23.17
2023-02-05T13:39:24.361Z,21.90
2023-02-05T13:42:13.158Z,22.63
2023-02-05T13:44:51.972Z,16.92
2023-02-05T13:47:27.682Z,28.88
2023-02-05T13:50:24.946Z,18.98
2023-02-05T13:53:09.600Z,20.40
2023-02-05T13:56:13.396Z,15.23
2023-02-05T13:59:00.740Z,21.42
2023-02-05T14:01:31.881Z,16.02
2023-02-05T14:04:02.723Z,20.67
2023-02-05T14:06:38.803Z,14.35
2023-02-05T14:09:20.572Z,13.07
2023-02-05T14:11:54.639Z,13.13
2023-02-05T14:14:28.004Z,10.10
2023-02-05T14:16:56.529Z,12.63
2023-02-05T14:19:56.162Z,10.02
2023-02-05T14:22:43.323Z,12.73
2023-02-05T14:25:35.345Z,11.65
2023-02-05T14:28:02.908Z,15.52
2023-02-05T14:30:45.644Z,10.13
2023-02-05T14:33:44.481Z,8.82
2023-02-05T14:36:17.281Z,12.60
2023-02-05T14:39:05.691Z,9.00
2023-02-05T14:41:41.802Z,20.25
2023-02-05T14:44:25.357Z,14.85
2023-02-05T14:47:00.188Z,15.48
2023-02-05T14:49:34.333Z,13.05
2023-02-05T14:52:04.726Z,9.73
2023-02-05T14:54:41.736Z,11.93
2023-02-05T14:57:29.097Z,12.05
2023-02-05T15:00:01.326Z,10.55
2023-02-05T15:02:50.229Z,11.23
2023-02-05T15:05:43.565Z,16.02
2023-02-05T15:08:13.452Z,12.35
2023-02-05T15:10:54.699Z,11.02
2023-02-05T15:13:23.137Z,12.57
2023-02-05T15:16:11.974Z,13.95
2023-02-05T15:18:44.948Z,11.10
2023-02-05T15:23:47.208Z,18.58
2023-02-05T15:26:44.469Z,15.15
2023-02-05T15:29:27.230Z,20.52
2023-02-05T15:32:17.867Z,10.43
2023-02-05T15:34:52.133Z,21.92
2023-02-05T15:37:41.895Z,13.25
2023-02-05T15:40:30.718Z,13.13
2023-02-05T15:43:15.751Z,11.88
2023-02-05T15:45:45.196Z,12.63
2023-02-05T15:48:12.080Z,9.27
2023-02-05T15:50:48.896Z,13.32
2023-02-05T15:53:33.109Z,12.52
2023-02-05T15:56:21.245Z,15.98
2023-02-05T15:58:49.609Z,10.88
2023-02-05T16:01:25.751Z,8.93
2023-02-05T16:03:52.758Z,9.55
2023-02-05T16:06:25.092Z,16.65
2023-02-05T16:08:53.630Z,12.65
2023-02-05T16:11:32.403Z,12.32
2023-02-05T16:14:16.118Z,14.20
2023-02-05T16:16:55.173Z,18.45
2023-02-05T16:19:27.447Z,15.65
2023-02-05T16:22:37.240Z,13.55
2023-02-05T16:25:31.603Z,13.38
2023-02-05T16:28:02.818Z,15.75
2023-02-05T16:30:43.004Z,13.60
2023-02-05T16:33:18.361Z,12.13
2023-02-05T16:35:48.400Z,19.17
2023-02-05T16:38:17.200Z,12.55
2023-02-05T16:40:47.100Z,13.82
2023-02-05T16:43:31.727Z,14.88
2023-02-05T16:46:07.713Z,9.07
2023-02-05T16:51:32.692Z,14.55
2023-02-05T16:54:11.519Z,16.75
2023-02-05T16:56:46.233Z,18.67
2023-02-05T16:59:20.154Z,18.77
2023-02-05T17:01:47.375Z,18.10
2023-02-05T17:04:36.963Z,16.83
2023-02-05T17:07:15.577Z,16.73
2023-02-05T17:09:42.466Z,12.35
2023-02-05T17:12:38.575Z,17.40
2023-02-05T17:15:26.618Z,22.48
2023-02-05T17:17:56.138Z,10.73
2023-02-05T17:20:28.151Z,16.17
2023-02-05T17:23:01.043Z,13.00
2023-02-05T17:27:55.897Z,21.50
2023-02-05T17:30:22.859Z,21.38
2023-02-05T17:32:50.594Z,23.65
2023-02-05T17:35:19.259Z,16.98
2023-02-05T17:37:46.086Z,24.52
2023-02-05T17:40:13.499Z,17.90
2023-02-05T17:42:40.686Z,23.25
2023-02-05T17:45:16.484Z,22.70
2023-02-05T17:47:43.330Z,23.67
2023-02-05T17:50:11.116Z,25.05
2023-02-05T17:52:38.302Z,20.58
2023-02-05T17:55:06.542Z,22.65
2023-02-05T17:57:36.242Z,24.00
2023-02-05T18:00:05.484Z,25.38
2023-02-05T18:02:32.410Z,19.45
2023-02-05T18:04:59.229Z,28.50
2023-02-05T18:07:35.113Z,23.63
2023-02-05T18:10:01.993Z,25.23
2023-02-05T18:12:29.073Z,22.58
2023-02-05T18:14:55.972Z,27.10
2023-02-05T18:17:22.786Z,25.08
2023-02-05T18:19:49.571Z,21.60
2023-02-05T18:22:16.637Z,21.90
2023-02-05T18:24:43.371Z,27.48
2023-02-05T18:27:11.985Z,22.40
2023-02-05T18:29:39.265Z,24.75
2023-02-05T18:32:06.750Z,24.00
2023-02-05T18:34:33.661Z,26.85
2023-02-05T18:37:00.602Z,26.08
2023-02-05T18:39:29.397Z,25.80
2023-02-05T18:41:57.149Z,24.75
2023-02-05T18:44:25.034Z,24.75
2023-02-05T18:46:51.914Z,27.77
2023-02-05T18:49:18.703Z,23.77
2023-02-05T18:51:46.078Z,31.90
2023-02-05T18:54:13.081Z,30.88
2023-02-05T18:56:40.034Z,28.88
2023-02-05T18:59:08.658Z,31.55
2023-02-05T19:01:38.477Z,38.83
2023-02-05T19:04:13.735Z,30.80
2023-02-05T19:06:42.453Z,26.00
2023-02-05T19:09:13.510Z,26.05
2023-02-05T19:11:48.978Z,27.70
2023-02-05T19:14:18.222Z,28.23
2023-02-05T19:16:45.476Z,26.95
2023-02-05T19:19:18.598Z,36.35
2023-02-05T19:21:45.845Z,28.02
2023-02-05T19:24:13.757Z,33.58
2023-02-05T19:26:44.139Z,34.42
2023-02-05T19:29:17.623Z,37.72
2023-02-05T19:31:45.507Z,34.95
2023-02-05T19:34:12.829Z,29.90
2023-02-05T19:36:40.005Z,31.25
2023-02-05T19:39:09.221Z,33.22
2023-02-05T19:41:36.990Z,32.05
2023-02-05T19:44:06.711Z,35.25
2023-02-05T19:46:37.405Z,32.05
2023-02-05T19:49:08.985Z,31.30
2023-02-05T19:51:37.077Z,39.38
2023-02-05T19:54:06.096Z,33.53
2023-02-05T19:56:35.697Z,24.23
2023-02-05T19:59:02.579Z,27.70
2023-02-05T20:01:32.110Z,35.30
2023-02-05T20:04:11.111Z,33.97
2023-02-05T20:06:38.416Z,29.88
2023-02-05T20:09:10.463Z,29.20
2023-02-05T20:11:38.785Z,28.87
2023-02-05T20:14:06.082Z,33.42
2023-02-05T20:16:33.919Z,36.70
2023-02-05T20:19:01.203Z,27.77
2023-02-05T20:21:29.803Z,39.90
2023-02-05T20:23:57.250Z,29.35
2023-02-05T20:26:24.639Z,36.17
2023-02-05T20:29:12.583Z,27.63
2023-02-05T20:31:43.430Z,43.17
2023-02-05T20:34:11.691Z,31.08
2023-02-05T20:36:38.952Z,30.42
2023-02-05T20:39:07.690Z,38.67
2023-02-05T20:41:35.415Z,33.92
2023-02-05T20:44:03.227Z,33.35
2023-02-05T20:46:31.059Z,37.97
2023-02-05T20:48:59.073Z,38.97
2023-02-05T20:51:26.150Z,31.30
2023-02-05T20:53:57.363Z,34.22
2023-02-05T20:56:25.868Z,34.60
2023-02-05T20:58:53.137Z,31.00
2023-02-05T21:01:22.227Z,40.33
2023-02-05T21:04:01.791Z,37.92
2023-02-05T21:06:31.526Z,34.20
2023-02-05T21:08:58.615Z,28.10
2023-02-05T21:11:27.783Z,32.35
2023-02-05T21:13:54.983Z,36.00
2023-02-05T21:16:23.773Z,35.85
2023-02-05T21:18:51.719Z,33.20
2023-02-05T21:21:23.079Z,27.90
2023-02-05T21:23:54.688Z,33.60
2023-02-05T21:26:24.551Z,32.65
2023-02-05T21:28:56.514Z,33.72
2023-02-05T21:31:25.095Z,32.08
2023-02-05T21:33:51.989Z,38.45
2023-02-05T21:36:20.561Z,29.42
2023-02-05T21:38:47.455Z,34.63
2023-02-05T21:41:18.616Z,29.42
2023-02-05T21:43:50.748Z,23.35
2023-02-05T21:46:17.917Z,32.83
2023-02-05T21:48:48.937Z,26.75
2023-02-05T21:51:16.780Z,38.72
2023-02-05T21:53:43.947Z,30.63
2023-02-05T21:56:13.918Z,19.85
2023-02-05T21:58:41.593Z,24.10
2023-02-05T22:01:20.760Z,21.73
2023-02-05T22:03:53.299Z,21.23
2023-02-05T22:06:22.440Z,26.15
2023-02-05T22:08:50.971Z,21.40
2023-02-05T22:11:20.682Z,24.98
2023-02-05T22:13:49.328Z,23.98
2023-02-05T22:16:22.170Z,23.27
2023-02-05T22:21:27.483Z,18.38
2023-02-05T22:23:56.477Z,22.00
2023-02-05T22:26:26.270Z,25.05
2023-02-05T22:28:53.336Z,28.75
2023-02-05T22:31:21.362Z,29.55
2023-02-05T22:33:49.641Z,21.80
2023-02-05T22:36:19.227Z,20.13
2023-02-05T22:38:46.867Z,26.35
2023-02-05T22:41:17.085Z,31.67
2023-02-05T22:43:43.868Z,24.67
2023-02-05T22:46:13.872Z,23.73
2023-02-05T22:48:42.891Z,26.83
2023-02-05T22:51:12.075Z,24.02
2023-02-05T22:53:39.629Z,27.33
2023-02-05T22:56:08.862Z,29.42
2023-02-05T22:58:38.943Z,33.55
2023-02-05T23:01:17.982Z,25.02
2023-02-05T23:03:46.456Z,21.73
2023-02-05T23:06:34.908Z,35.47
2023-02-05T23:09:11.325Z,32.80
2023-02-05T23:11:38.138Z,27.08
2023-02-05T23:14:07.389Z,20.20
2023-02-05T23:16:40.390Z,30.00
2023-02-05T23:19:10.851Z,30.00
2023-02-05T23:21:39.013Z,23.15
2023-02-05T23:24:07.209Z,23.52
2023-02-05T23:26:39.749Z,31.20
2023-02-05T23:29:07.472Z,33.50
2023-02-05T23:31:34.950Z,28.90
2023-02-05T23:34:03.336Z,32.38
2023-02-05T23:36:30.229Z,31.67
2023-02-05T23:38:57.138Z,34.05
2023-02-05T23:41:36.466Z,29.13
2023-02-05T23:44:18.721Z,32.22
2023-02-05T23:46:47.460Z,39.20
2023-02-05T23:49:15.259Z,27.48
2023-02-05T23:51:42.216Z,31.80
2023-02-05T23:54:11.143Z,26.55
2023-02-05T23:56:38.002Z,22.83
2023-02-05T23:59:06.532Z,27.33
